sensor_id;sensor_type;location;lat;lon;timestamp;P1;durP1;ratioP1;P2;durP2;ratioP2
20040;SDS011;10181;48.072;9.884;2023-05-23T00:00:23;12.33;;;9.07;;
20040;SDS011;10181;48.072;9.884;2023-05-23T00:02:49;8.90;;;8.20;;
20040;SDS011;10181;48.072;9.884;2023-05-23T00:05:14;11.30;;;10.27;;
20040;SDS011;10181;48.072;9.884;2023-05-23T00:07:42;10.40;;;9.37;;
20040;SDS011;10181;48.072;9.884;2023-05-23T00:10:08;9.20;;;8.30;;
20040;SDS011;10181;48.072;9.884;2023-05-23T00:12:34;10.87;;;9.83;;
20040;SDS011;10181;48.072;9.884;2023-05-23T00:15:01;8.77;;;7.97;;
20040;SDS011;10181;48.072;9.884;2023-05-23T00:17:27;8.97;;;8.17;;
20040;SDS011;10181;48.072;9.884;2023-05-23T00:19:53;10.33;;;9.33;;
20040;SDS011;10181;48.072;9.884;2023-05-23T00:22:20;9.87;;;8.87;;
20040;SDS011;10181;48.072;9.884;2023-05-23T00:24:45;7.73;;;7.13;;
20040;SDS011;10181;48.072;9.884;2023-05-23T00:27:11;8.20;;;7.50;;
20040;SDS011;10181;48.072;9.884;2023-05-23T00:29:37;9.00;;;8.30;;
20040;SDS011;10181;48.072;9.884;2023-05-23T00:32:02;8.63;;;7.90;;
20040;SDS011;10181;48.072;9.884;2023-05-23T00:34:28;8.77;;;8.00;;
20040;SDS011;10181;48.072;9.884;2023-05-23T00:36:54;8.90;;;8.10;;
20040;SDS011;10181;48.072;9.884;2023-05-23T00:39:19;10.20;;;9.20;;
20040;SDS011;10181;48.072;9.884;2023-05-23T00:41:45;8.80;;;7.83;;
20040;SDS011;10181;48.072;9.884;2023-05-23T00:44:12;9.23;;;8.30;;
20040;SDS011;10181;48.072;9.884;2023-05-23T00:46:38;13.60;;;10.13;;
20040;SDS011;10181;48.072;9.884;2023-05-23T00:49:04;13.47;;;11.53;;
20040;SDS011;10181;48.072;9.884;2023-05-23T00:51:30;9.90;;;9.10;;
20040;SDS011;10181;48.072;9.884;2023-05-23T00:53:56;10.60;;;9.60;;
20040;SDS011;10181;48.072;9.884;2023-05-23T00:56:25;10.37;;;9.53;;
20040;SDS011;10181;48.072;9.884;2023-05-23T00:58:51;10.07;;;9.27;;
20040;SDS011;10181;48.072;9.884;2023-05-23T01:01:18;10.97;;;9.93;;
20040;SDS011;10181;48.072;9.884;2023-05-23T01:03:44;10.57;;;9.63;;
20040;SDS011;10181;48.072;9.884;2023-05-23T01:06:12;10.43;;;9.53;;
20040;SDS011;10181;48.072;9.884;2023-05-23T01:08:39;10.27;;;9.43;;
20040;SDS011;10181;48.072;9.884;2023-05-23T01:11:11;9.83;;;8.93;;
20040;SDS011;10181;48.072;9.884;2023-05-23T01:13:58;11.00;;;9.83;;
20040;SDS011;10181;48.072;9.884;2023-05-23T01:16:31;11.30;;;10.40;;
20040;SDS011;10181;48.072;9.884;2023-05-23T01:21:32;13.20;;;12.10;;
20040;SDS011;10181;48.072;9.884;2023-05-23T01:24:17;13.10;;;11.90;;
20040;SDS011;10181;48.072;9.884;2023-05-23T01:27:07;13.13;;;12.13;;
20040;SDS011;10181;48.072;9.884;2023-05-23T01:29:43;14.47;;;13.00;;
20040;SDS011;10181;48.072;9.884;2023-05-23T01:32:14;14.40;;;13.00;;
20040;SDS011;10181;48.072;9.884;2023-05-23T01:34:41;11.53;;;10.53;;
20040;SDS011;10181;48.072;9.884;2023-05-23T01:37:10;10.80;;;9.90;;
20040;SDS011;10181;48.072;9.884;2023-05-23T01:39:38;11.57;;;10.50;;
20040;SDS011;10181;48.072;9.884;2023-05-23T01:42:04;14.53;;;13.13;;
20040;SDS011;10181;48.072;9.884;2023-05-23T01:44:31;12.90;;;11.70;;
20040;SDS011;10181;48.072;9.884;2023-05-23T01:46:58;12.27;;;11.27;;
20040;SDS011;10181;48.072;9.884;2023-05-23T01:49:24;12.90;;;11.67;;
20040;SDS011;10181;48.072;9.884;2023-05-23T01:51:50;13.87;;;12.53;;
20040;SDS011;10181;48.072;9.884;2023-05-23T01:54:17;14.43;;;12.93;;
20040;SDS011;10181;48.072;9.884;2023-05-23T01:56:43;15.80;;;13.67;;
20040;SDS011;10181;48.072;9.884;2023-05-23T01:59:09;12.53;;;11.23;;
20040;SDS011;10181;48.072;9.884;2023-05-23T02:01:36;12.23;;;11.13;;
20040;SDS011;10181;48.072;9.884;2023-05-23T02:04:02;11.47;;;10.47;;
20040;SDS011;10181;48.072;9.884;2023-05-23T02:06:28;11.80;;;10.80;;
20040;SDS011;10181;48.072;9.884;2023-05-23T02:08:55;10.87;;;10.00;;
20040;SDS011;10181;48.072;9.884;2023-05-23T02:11:21;10.93;;;10.20;;
20040;SDS011;10181;48.072;9.884;2023-05-23T02:13:47;11.33;;;10.43;;
20040;SDS011;10181;48.072;9.884;2023-05-23T02:16:12;10.97;;;10.07;;
20040;SDS011;10181;48.072;9.884;2023-05-23T02:18:38;12.00;;;10.90;;
20040;SDS011;10181;48.072;9.884;2023-05-23T02:21:04;10.23;;;9.43;;
20040;SDS011;10181;48.072;9.884;2023-05-23T02:23:30;10.53;;;9.70;;
20040;SDS011;10181;48.072;9.884;2023-05-23T02:25:55;9.73;;;9.03;;
20040;SDS011;10181;48.072;9.884;2023-05-23T02:28:21;11.30;;;10.20;;
20040;SDS011;10181;48.072;9.884;2023-05-23T02:30:46;9.93;;;8.93;;
20040;SDS011;10181;48.072;9.884;2023-05-23T02:33:12;16.37;;;12.13;;
20040;SDS011;10181;48.072;9.884;2023-05-23T02:35:38;12.80;;;11.50;;
20040;SDS011;10181;48.072;9.884;2023-05-23T02:38:04;10.80;;;9.80;;
20040;SDS011;10181;48.072;9.884;2023-05-23T02:40:30;10.77;;;9.67;;
20040;SDS011;10181;48.072;9.884;2023-05-23T02:42:55;10.77;;;9.67;;
20040;SDS011;10181;48.072;9.884;2023-05-23T02:45:21;10.67;;;9.67;;
20040;SDS011;10181;48.072;9.884;2023-05-23T02:47:47;9.77;;;8.97;;
20040;SDS011;10181;48.072;9.884;2023-05-23T02:50:13;12.03;;;10.83;;
20040;SDS011;10181;48.072;9.884;2023-05-23T02:52:40;9.60;;;8.87;;
20040;SDS011;10181;48.072;9.884;2023-05-23T02:55:06;10.53;;;9.57;;
20040;SDS011;10181;48.072;9.884;2023-05-23T02:57:32;13.17;;;10.33;;
20040;SDS011;10181;48.072;9.884;2023-05-23T02:59:58;10.43;;;9.63;;
20040;SDS011;10181;48.072;9.884;2023-05-23T03:02:23;10.83;;;9.87;;
20040;SDS011;10181;48.072;9.884;2023-05-23T03:04:49;11.77;;;10.67;;
20040;SDS011;10181;48.072;9.884;2023-05-23T03:07:15;11.73;;;10.70;;
20040;SDS011;10181;48.072;9.884;2023-05-23T03:09:40;12.87;;;11.77;;
20040;SDS011;10181;48.072;9.884;2023-05-23T03:12:06;15.33;;;14.03;;
20040;SDS011;10181;48.072;9.884;2023-05-23T03:14:32;12.40;;;11.53;;
20040;SDS011;10181;48.072;9.884;2023-05-23T03:16:58;12.80;;;11.90;;
20040;SDS011;10181;48.072;9.884;2023-05-23T03:19:24;11.40;;;10.50;;
20040;SDS011;10181;48.072;9.884;2023-05-23T03:21:50;13.30;;;12.10;;
20040;SDS011;10181;48.072;9.884;2023-05-23T03:24:16;13.50;;;12.50;;
20040;SDS011;10181;48.072;9.884;2023-05-23T03:26:42;12.57;;;11.67;;
20040;SDS011;10181;48.072;9.884;2023-05-23T03:29:07;11.87;;;10.97;;
20040;SDS011;10181;48.072;9.884;2023-05-23T03:31:34;13.00;;;12.00;;
20040;SDS011;10181;48.072;9.884;2023-05-23T03:34:01;13.70;;;12.63;;
20040;SDS011;10181;48.072;9.884;2023-05-23T03:36:27;14.23;;;13.20;;
20040;SDS011;10181;48.072;9.884;2023-05-23T03:38:52;16.80;;;15.50;;
20040;SDS011;10181;48.072;9.884;2023-05-23T03:41:18;15.73;;;14.73;;
20040;SDS011;10181;48.072;9.884;2023-05-23T03:43:43;16.20;;;15.00;;
20040;SDS011;10181;48.072;9.884;2023-05-23T03:46:09;17.23;;;15.93;;
20040;SDS011;10181;48.072;9.884;2023-05-23T03:48:35;17.53;;;16.13;;
20040;SDS011;10181;48.072;9.884;2023-05-23T03:51:01;18.13;;;16.63;;
20040;SDS011;10181;48.072;9.884;2023-05-23T03:53:26;15.63;;;14.43;;
20040;SDS011;10181;48.072;9.884;2023-05-23T03:55:52;15.07;;;14.00;;
20040;SDS011;10181;48.072;9.884;2023-05-23T03:58:18;15.90;;;14.70;;
20040;SDS011;10181;48.072;9.884;2023-05-23T04:00:44;15.97;;;14.63;;
20040;SDS011;10181;48.072;9.884;2023-05-23T04:03:10;15.43;;;14.33;;
20040;SDS011;10181;48.072;9.884;2023-05-23T04:05:39;15.83;;;14.60;;
20040;SDS011;10181;48.072;9.884;2023-05-23T04:08:05;15.13;;;13.87;;
20040;SDS011;10181;48.072;9.884;2023-05-23T04:10:30;14.97;;;13.67;;
20040;SDS011;10181;48.072;9.884;2023-05-23T04:12:56;15.67;;;14.30;;
20040;SDS011;10181;48.072;9.884;2023-05-23T04:15:22;15.10;;;13.70;;
20040;SDS011;10181;48.072;9.884;2023-05-23T04:17:48;14.97;;;13.47;;
20040;SDS011;10181;48.072;9.884;2023-05-23T04:20:15;14.33;;;13.03;;
20040;SDS011;10181;48.072;9.884;2023-05-23T04:22:41;12.93;;;11.80;;
20040;SDS011;10181;48.072;9.884;2023-05-23T04:25:07;16.10;;;14.50;;
20040;SDS011;10181;48.072;9.884;2023-05-23T04:27:33;15.77;;;14.10;;
20040;SDS011;10181;48.072;9.884;2023-05-23T04:29:59;13.27;;;12.07;;
20040;SDS011;10181;48.072;9.884;2023-05-23T04:32:25;13.47;;;12.27;;
20040;SDS011;10181;48.072;9.884;2023-05-23T04:34:50;13.63;;;12.37;;
20040;SDS011;10181;48.072;9.884;2023-05-23T04:37:16;16.23;;;14.50;;
20040;SDS011;10181;48.072;9.884;2023-05-23T04:39:46;17.40;;;15.60;;
20040;SDS011;10181;48.072;9.884;2023-05-23T04:42:12;15.50;;;13.33;;
20040;SDS011;10181;48.072;9.884;2023-05-23T04:44:38;19.20;;;16.07;;
20040;SDS011;10181;48.072;9.884;2023-05-23T04:47:03;25.90;;;18.97;;
20040;SDS011;10181;48.072;9.884;2023-05-23T04:49:29;23.90;;;20.47;;
20040;SDS011;10181;48.072;9.884;2023-05-23T04:51:58;25.63;;;21.67;;
20040;SDS011;10181;48.072;9.884;2023-05-23T04:54:23;24.07;;;16.50;;
20040;SDS011;10181;48.072;9.884;2023-05-23T04:56:49;18.27;;;14.87;;
20040;SDS011;10181;48.072;9.884;2023-05-23T04:59:15;15.17;;;12.70;;
20040;SDS011;10181;48.072;9.884;2023-05-23T05:01:41;25.47;;;17.03;;
20040;SDS011;10181;48.072;9.884;2023-05-23T05:04:06;26.40;;;20.17;;
20040;SDS011;10181;48.072;9.884;2023-05-23T05:06:32;25.60;;;19.30;;
20040;SDS011;10181;48.072;9.884;2023-05-23T05:08:58;25.37;;;20.30;;
20040;SDS011;10181;48.072;9.884;2023-05-23T05:11:24;27.90;;;20.83;;
20040;SDS011;10181;48.072;9.884;2023-05-23T05:13:51;23.17;;;19.33;;
20040;SDS011;10181;48.072;9.884;2023-05-23T05:16:16;25.60;;;18.30;;
20040;SDS011;10181;48.072;9.884;2023-05-23T05:18:42;27.20;;;19.27;;
20040;SDS011;10181;48.072;9.884;2023-05-23T05:21:07;25.53;;;17.70;;
20040;SDS011;10181;48.072;9.884;2023-05-23T05:23:34;30.20;;;20.27;;
20040;SDS011;10181;48.072;9.884;2023-05-23T05:26:00;25.53;;;18.57;;
20040;SDS011;10181;48.072;9.884;2023-05-23T05:28:26;27.87;;;20.23;;
20040;SDS011;10181;48.072;9.884;2023-05-23T05:30:51;26.90;;;18.93;;
20040;SDS011;10181;48.072;9.884;2023-05-23T05:33:21;25.83;;;18.13;;
20040;SDS011;10181;48.072;9.884;2023-05-23T05:35:49;23.03;;;18.20;;
20040;SDS011;10181;48.072;9.884;2023-05-23T05:38:15;25.97;;;19.20;;
20040;SDS011;10181;48.072;9.884;2023-05-23T05:40:41;25.10;;;17.40;;
20040;SDS011;10181;48.072;9.884;2023-05-23T05:43:07;22.07;;;17.47;;
20040;SDS011;10181;48.072;9.884;2023-05-23T05:45:32;25.73;;;19.67;;
20040;SDS011;10181;48.072;9.884;2023-05-23T05:47:58;25.77;;;18.93;;
20040;SDS011;10181;48.072;9.884;2023-05-23T05:50:24;25.00;;;18.10;;
20040;SDS011;10181;48.072;9.884;2023-05-23T05:52:49;22.30;;;18.50;;
20040;SDS011;10181;48.072;9.884;2023-05-23T05:55:15;27.67;;;20.90;;
20040;SDS011;10181;48.072;9.884;2023-05-23T05:57:41;31.20;;;19.80;;
20040;SDS011;10181;48.072;9.884;2023-05-23T06:00:10;32.07;;;21.73;;
20040;SDS011;10181;48.072;9.884;2023-05-23T06:02:41;26.20;;;19.73;;
20040;SDS011;10181;48.072;9.884;2023-05-23T06:05:08;30.53;;;22.10;;
20040;SDS011;10181;48.072;9.884;2023-05-23T06:07:36;30.93;;;22.60;;
20040;SDS011;10181;48.072;9.884;2023-05-23T06:10:03;32.93;;;23.40;;
20040;SDS011;10181;48.072;9.884;2023-05-23T06:12:29;33.43;;;22.93;;
20040;SDS011;10181;48.072;9.884;2023-05-23T06:14:54;31.40;;;23.20;;
20040;SDS011;10181;48.072;9.884;2023-05-23T06:17:20;33.87;;;24.83;;
20040;SDS011;10181;48.072;9.884;2023-05-23T06:19:46;33.97;;;23.97;;
20040;SDS011;10181;48.072;9.884;2023-05-23T06:22:11;33.67;;;24.70;;
20040;SDS011;10181;48.072;9.884;2023-05-23T06:24:37;36.83;;;26.27;;
20040;SDS011;10181;48.072;9.884;2023-05-23T06:27:02;35.07;;;26.83;;
20040;SDS011;10181;48.072;9.884;2023-05-23T06:29:28;35.03;;;25.27;;
20040;SDS011;10181;48.072;9.884;2023-05-23T06:31:55;35.63;;;26.47;;
20040;SDS011;10181;48.072;9.884;2023-05-23T06:34:21;39.03;;;28.63;;
20040;SDS011;10181;48.072;9.884;2023-05-23T06:36:46;39.87;;;28.50;;
20040;SDS011;10181;48.072;9.884;2023-05-23T06:39:12;39.87;;;28.40;;
20040;SDS011;10181;48.072;9.884;2023-05-23T06:41:38;39.90;;;28.53;;
20040;SDS011;10181;48.072;9.884;2023-05-23T06:44:04;40.27;;;29.83;;
20040;SDS011;10181;48.072;9.884;2023-05-23T06:46:30;43.13;;;31.00;;
20040;SDS011;10181;48.072;9.884;2023-05-23T06:48:55;36.40;;;28.97;;
20040;SDS011;10181;48.072;9.884;2023-05-23T06:51:21;38.43;;;28.43;;
20040;SDS011;10181;48.072;9.884;2023-05-23T06:53:46;28.93;;;24.23;;
20040;SDS011;10181;48.072;9.884;2023-05-23T06:56:12;38.00;;;27.47;;
20040;SDS011;10181;48.072;9.884;2023-05-23T06:58:38;34.77;;;26.83;;
20040;SDS011;10181;48.072;9.884;2023-05-23T07:01:03;43.17;;;30.37;;
20040;SDS011;10181;48.072;9.884;2023-05-23T07:03:29;39.97;;;29.90;;
20040;SDS011;10181;48.072;9.884;2023-05-23T07:05:55;39.10;;;28.87;;
20040;SDS011;10181;48.072;9.884;2023-05-23T07:08:20;39.47;;;29.60;;
20040;SDS011;10181;48.072;9.884;2023-05-23T07:10:46;36.83;;;26.63;;
20040;SDS011;10181;48.072;9.884;2023-05-23T07:13:12;41.93;;;29.93;;
20040;SDS011;10181;48.072;9.884;2023-05-23T07:15:37;38.70;;;28.20;;
20040;SDS011;10181;48.072;9.884;2023-05-23T07:18:03;38.47;;;27.90;;
20040;SDS011;10181;48.072;9.884;2023-05-23T07:20:28;38.63;;;28.17;;
20040;SDS011;10181;48.072;9.884;2023-05-23T07:22:54;41.33;;;28.77;;
20040;SDS011;10181;48.072;9.884;2023-05-23T07:25:21;42.50;;;29.47;;
20040;SDS011;10181;48.072;9.884;2023-05-23T07:27:47;43.17;;;28.03;;
20040;SDS011;10181;48.072;9.884;2023-05-23T07:30:13;43.47;;;27.37;;
20040;SDS011;10181;48.072;9.884;2023-05-23T07:32:40;40.63;;;26.00;;
20040;SDS011;10181;48.072;9.884;2023-05-23T07:35:06;32.60;;;23.47;;
20040;SDS011;10181;48.072;9.884;2023-05-23T07:37:32;39.70;;;24.77;;
20040;SDS011;10181;48.072;9.884;2023-05-23T07:39:57;39.23;;;26.53;;
20040;SDS011;10181;48.072;9.884;2023-05-23T07:42:23;43.07;;;26.60;;
20040;SDS011;10181;48.072;9.884;2023-05-23T07:44:48;34.20;;;24.07;;
20040;SDS011;10181;48.072;9.884;2023-05-23T07:47:14;41.10;;;28.00;;
20040;SDS011;10181;48.072;9.884;2023-05-23T07:49:40;36.13;;;24.13;;
20040;SDS011;10181;48.072;9.884;2023-05-23T07:52:05;39.63;;;26.07;;
20040;SDS011;10181;48.072;9.884;2023-05-23T07:54:31;43.37;;;27.40;;
20040;SDS011;10181;48.072;9.884;2023-05-23T07:56:56;37.37;;;25.73;;
20040;SDS011;10181;48.072;9.884;2023-05-23T07:59:22;43.80;;;27.63;;
20040;SDS011;10181;48.072;9.884;2023-05-23T08:01:48;36.87;;;26.83;;
20040;SDS011;10181;48.072;9.884;2023-05-23T08:04:16;38.80;;;27.17;;
20040;SDS011;10181;48.072;9.884;2023-05-23T08:06:42;38.57;;;27.97;;
20040;SDS011;10181;48.072;9.884;2023-05-23T08:09:11;37.97;;;25.93;;
20040;SDS011;10181;48.072;9.884;2023-05-23T08:11:36;41.13;;;28.47;;
20040;SDS011;10181;48.072;9.884;2023-05-23T08:14:02;44.90;;;28.77;;
20040;SDS011;10181;48.072;9.884;2023-05-23T08:16:28;38.37;;;25.87;;
20040;SDS011;10181;48.072;9.884;2023-05-23T08:18:53;37.83;;;25.73;;
20040;SDS011;10181;48.072;9.884;2023-05-23T08:21:19;39.47;;;26.47;;
20040;SDS011;10181;48.072;9.884;2023-05-23T08:23:44;36.77;;;25.00;;
20040;SDS011;10181;48.072;9.884;2023-05-23T08:26:10;35.70;;;26.17;;
20040;SDS011;10181;48.072;9.884;2023-05-23T08:28:35;34.20;;;25.13;;
20040;SDS011;10181;48.072;9.884;2023-05-23T08:31:01;37.60;;;26.73;;
20040;SDS011;10181;48.072;9.884;2023-05-23T08:33:27;38.87;;;26.27;;
20040;SDS011;10181;48.072;9.884;2023-05-23T08:35:53;38.53;;;25.73;;
20040;SDS011;10181;48.072;9.884;2023-05-23T08:38:18;35.60;;;25.17;;
20040;SDS011;10181;48.072;9.884;2023-05-23T08:40:48;37.80;;;25.50;;
20040;SDS011;10181;48.072;9.884;2023-05-23T08:43:17;37.27;;;25.77;;
20040;SDS011;10181;48.072;9.884;2023-05-23T08:45:44;35.00;;;24.73;;
20040;SDS011;10181;48.072;9.884;2023-05-23T08:48:10;33.57;;;23.60;;
20040;SDS011;10181;48.072;9.884;2023-05-23T08:50:37;35.37;;;24.47;;
20040;SDS011;10181;48.072;9.884;2023-05-23T08:53:05;36.80;;;24.33;;
20040;SDS011;10181;48.072;9.884;2023-05-23T08:55:33;35.43;;;25.20;;
20040;SDS011;10181;48.072;9.884;2023-05-23T08:57:59;38.07;;;25.23;;
20040;SDS011;10181;48.072;9.884;2023-05-23T09:00:25;40.90;;;25.53;;
20040;SDS011;10181;48.072;9.884;2023-05-23T09:02:52;37.33;;;24.57;;
20040;SDS011;10181;48.072;9.884;2023-05-23T09:05:18;42.13;;;25.10;;
20040;SDS011;10181;48.072;9.884;2023-05-23T09:07:44;35.40;;;23.47;;
20040;SDS011;10181;48.072;9.884;2023-05-23T09:10:15;32.73;;;22.80;;
20040;SDS011;10181;48.072;9.884;2023-05-23T09:12:47;37.17;;;25.00;;
20040;SDS011;10181;48.072;9.884;2023-05-23T09:15:13;31.97;;;23.37;;
20040;SDS011;10181;48.072;9.884;2023-05-23T09:17:39;38.67;;;24.07;;
20040;SDS011;10181;48.072;9.884;2023-05-23T09:20:11;42.07;;;24.77;;
20040;SDS011;10181;48.072;9.884;2023-05-23T09:22:38;39.37;;;25.70;;
20040;SDS011;10181;48.072;9.884;2023-05-23T09:25:04;36.17;;;25.37;;
20040;SDS011;10181;48.072;9.884;2023-05-23T09:27:30;37.53;;;26.13;;
20040;SDS011;10181;48.072;9.884;2023-05-23T09:29:56;35.10;;;25.63;;
20040;SDS011;10181;48.072;9.884;2023-05-23T09:32:22;33.80;;;24.57;;
20040;SDS011;10181;48.072;9.884;2023-05-23T09:34:54;29.43;;;23.73;;
20040;SDS011;10181;48.072;9.884;2023-05-23T09:37:21;32.50;;;23.13;;
20040;SDS011;10181;48.072;9.884;2023-05-23T09:39:49;32.63;;;23.67;;
20040;SDS011;10181;48.072;9.884;2023-05-23T09:42:22;34.47;;;23.73;;
20040;SDS011;10181;48.072;9.884;2023-05-23T09:44:48;34.77;;;23.87;;
20040;SDS011;10181;48.072;9.884;2023-05-23T09:47:17;30.77;;;23.30;;
20040;SDS011;10181;48.072;9.884;2023-05-23T09:49:43;34.90;;;23.27;;
20040;SDS011;10181;48.072;9.884;2023-05-23T09:52:10;30.20;;;22.63;;
20040;SDS011;10181;48.072;9.884;2023-05-23T09:54:36;31.53;;;23.30;;
20040;SDS011;10181;48.072;9.884;2023-05-23T09:57:02;30.23;;;21.37;;
20040;SDS011;10181;48.072;9.884;2023-05-23T09:59:31;26.03;;;19.60;;
20040;SDS011;10181;48.072;9.884;2023-05-23T10:01:59;25.53;;;20.27;;
20040;SDS011;10181;48.072;9.884;2023-05-23T10:04:29;25.73;;;19.20;;
20040;SDS011;10181;48.072;9.884;2023-05-23T10:07:00;29.47;;;21.67;;
20040;SDS011;10181;48.072;9.884;2023-05-23T10:09:32;29.17;;;20.57;;
20040;SDS011;10181;48.072;9.884;2023-05-23T10:14:48;26.43;;;20.77;;
20040;SDS011;10181;48.072;9.884;2023-05-23T10:17:24;27.33;;;22.10;;
20040;SDS011;10181;48.072;9.884;2023-05-23T10:19:57;28.60;;;22.75;;
20040;SDS011;10181;48.072;9.884;2023-05-23T10:22:31;29.93;;;21.90;;
20040;SDS011;10181;48.072;9.884;2023-05-23T10:24:57;27.42;;;23.27;;
20040;SDS011;10181;48.072;9.884;2023-05-23T10:27:23;28.13;;;25.27;;
20040;SDS011;10181;48.072;9.884;2023-05-23T10:29:49;25.20;;;22.53;;
20040;SDS011;10181;48.072;9.884;2023-05-23T10:32:16;29.27;;;24.73;;
20040;SDS011;10181;48.072;9.884;2023-05-23T10:35:27;31.97;;;28.03;;
20040;SDS011;10181;48.072;9.884;2023-05-23T10:37:41;40.17;;;36.57;;
20040;SDS011;10181;48.072;9.884;2023-05-23T10:40:41;37.28;;;33.67;;
20040;SDS011;10181;48.072;9.884;2023-05-23T10:43:27;30.27;;;27.13;;
20040;SDS011;10181;48.072;9.884;2023-05-23T10:45:54;29.55;;;26.48;;
20040;SDS011;10181;48.072;9.884;2023-05-23T10:50:47;33.17;;;29.75;;
20040;SDS011;10181;48.072;9.884;2023-05-23T10:53:28;35.93;;;32.37;;
20040;SDS011;10181;48.072;9.884;2023-05-23T10:55:54;28.15;;;24.83;;
20040;SDS011;10181;48.072;9.884;2023-05-23T10:58:20;30.67;;;27.65;;
20040;SDS011;10181;48.072;9.884;2023-05-23T11:01:20;28.73;;;25.88;;
20040;SDS011;10181;48.072;9.884;2023-05-23T11:09:09;44.70;;;41.55;;
20040;SDS011;10181;48.072;9.884;2023-05-23T11:11:58;35.77;;;32.73;;
20040;SDS011;10181;48.072;9.884;2023-05-23T11:14:31;33.60;;;30.47;;
20040;SDS011;10181;48.072;9.884;2023-05-23T11:19:37;39.07;;;35.87;;
20040;SDS011;10181;48.072;9.884;2023-05-23T11:22:03;33.10;;;30.13;;
20040;SDS011;10181;48.072;9.884;2023-05-23T11:24:48;31.05;;;27.88;;
20040;SDS011;10181;48.072;9.884;2023-05-23T11:27:28;27.25;;;24.35;;
20040;SDS011;10181;48.072;9.884;2023-05-23T11:30:09;26.10;;;22.03;;
20040;SDS011;10181;48.072;9.884;2023-05-23T11:32:40;27.70;;;21.92;;
20040;SDS011;10181;48.072;9.884;2023-05-23T11:35:07;27.83;;;25.03;;
20040;SDS011;10181;48.072;9.884;2023-05-23T11:37:38;28.13;;;24.40;;
20040;SDS011;10181;48.072;9.884;2023-05-23T11:43:15;29.10;;;25.70;;
20040;SDS011;10181;48.072;9.884;2023-05-23T11:45:42;27.43;;;24.30;;
20040;SDS011;10181;48.072;9.884;2023-05-23T11:48:11;26.27;;;22.27;;
20040;SDS011;10181;48.072;9.884;2023-05-23T11:50:45;24.60;;;21.67;;
20040;SDS011;10181;48.072;9.884;2023-05-23T11:53:15;25.63;;;22.70;;
20040;SDS011;10181;48.072;9.884;2023-05-23T11:55:50;28.95;;;24.20;;
20040;SDS011;10181;48.072;9.884;2023-05-23T11:58:27;28.03;;;23.50;;
20040;SDS011;10181;48.072;9.884;2023-05-23T12:01:01;26.33;;;23.35;;
20040;SDS011;10181;48.072;9.884;2023-05-23T12:03:28;25.58;;;22.55;;
20040;SDS011;10181;48.072;9.884;2023-05-23T12:05:55;29.50;;;24.38;;
20040;SDS011;10181;48.072;9.884;2023-05-23T12:08:21;31.70;;;26.08;;
20040;SDS011;10181;48.072;9.884;2023-05-23T12:10:58;29.42;;;23.98;;
20040;SDS011;10181;48.072;9.884;2023-05-23T12:13:27;27.63;;;23.15;;
20040;SDS011;10181;48.072;9.884;2023-05-23T12:15:58;28.00;;;25.23;;
20040;SDS011;10181;48.072;9.884;2023-05-23T12:18:27;24.73;;;22.03;;
20040;SDS011;10181;48.072;9.884;2023-05-23T12:21:02;32.47;;;28.92;;
20040;SDS011;10181;48.072;9.884;2023-05-23T12:23:30;25.80;;;23.20;;
20040;SDS011;10181;48.072;9.884;2023-05-23T12:25:56;28.85;;;25.83;;
20040;SDS011;10181;48.072;9.884;2023-05-23T12:28:35;26.25;;;21.38;;
20040;SDS011;10181;48.072;9.884;2023-05-23T12:33:45;24.13;;;21.20;;
20040;SDS011;10181;48.072;9.884;2023-05-23T12:36:12;23.50;;;19.37;;
20040;SDS011;10181;48.072;9.884;2023-05-23T12:38:38;24.80;;;22.08;;
20040;SDS011;10181;48.072;9.884;2023-05-23T12:41:11;27.87;;;23.30;;
20040;SDS011;10181;48.072;9.884;2023-05-23T12:43:53;24.85;;;20.55;;
20040;SDS011;10181;48.072;9.884;2023-05-23T12:46:21;24.90;;;19.92;;
20040;SDS011;10181;48.072;9.884;2023-05-23T12:48:50;24.27;;;20.10;;
20040;SDS011;10181;48.072;9.884;2023-05-23T12:51:16;24.87;;;21.03;;
20040;SDS011;10181;48.072;9.884;2023-05-23T12:53:42;27.60;;;20.92;;
20040;SDS011;10181;48.072;9.884;2023-05-23T12:56:08;23.53;;;20.30;;
20040;SDS011;10181;48.072;9.884;2023-05-23T12:58:34;21.07;;;17.90;;
20040;SDS011;10181;48.072;9.884;2023-05-23T13:01:00;21.70;;;18.75;;
20040;SDS011;10181;48.072;9.884;2023-05-23T13:03:29;23.90;;;18.17;;
20040;SDS011;10181;48.072;9.884;2023-05-23T13:05:56;20.07;;;17.43;;
20040;SDS011;10181;48.072;9.884;2023-05-23T13:08:22;21.27;;;17.80;;
20040;SDS011;10181;48.072;9.884;2023-05-23T13:10:48;20.97;;;18.50;;
20040;SDS011;10181;48.072;9.884;2023-05-23T13:13:14;20.33;;;18.20;;
20040;SDS011;10181;48.072;9.884;2023-05-23T13:15:39;16.88;;;15.23;;
20040;SDS011;10181;48.072;9.884;2023-05-23T13:18:05;19.95;;;17.38;;
20040;SDS011;10181;48.072;9.884;2023-05-23T13:20:31;21.53;;;17.57;;
20040;SDS011;10181;48.072;9.884;2023-05-23T13:22:56;19.90;;;17.20;;
20040;SDS011;10181;48.072;9.884;2023-05-23T13:25:22;19.50;;;17.45;;
20040;SDS011;10181;48.072;9.884;2023-05-23T13:27:49;19.67;;;17.40;;
20040;SDS011;10181;48.072;9.884;2023-05-23T13:30:15;18.05;;;16.10;;
20040;SDS011;10181;48.072;9.884;2023-05-23T13:32:40;19.70;;;17.58;;
20040;SDS011;10181;48.072;9.884;2023-05-23T13:35:06;18.15;;;16.25;;
20040;SDS011;10181;48.072;9.884;2023-05-23T13:37:32;18.23;;;16.30;;
20040;SDS011;10181;48.072;9.884;2023-05-23T13:40:00;17.13;;;15.35;;
20040;SDS011;10181;48.072;9.884;2023-05-23T13:42:27;17.38;;;15.68;;
20040;SDS011;10181;48.072;9.884;2023-05-23T13:44:53;20.40;;;16.98;;
20040;SDS011;10181;48.072;9.884;2023-05-23T13:47:18;20.95;;;17.02;;
20040;SDS011;10181;48.072;9.884;2023-05-23T13:49:44;19.95;;;16.08;;
20040;SDS011;10181;48.072;9.884;2023-05-23T13:52:10;16.35;;;14.70;;
20040;SDS011;10181;48.072;9.884;2023-05-23T13:54:36;19.85;;;17.80;;
20040;SDS011;10181;48.072;9.884;2023-05-23T13:57:02;20.00;;;16.67;;
20040;SDS011;10181;48.072;9.884;2023-05-23T13:59:28;18.88;;;16.05;;
20040;SDS011;10181;48.072;9.884;2023-05-23T14:01:53;20.00;;;16.48;;
20040;SDS011;10181;48.072;9.884;2023-05-23T14:04:19;17.67;;;15.77;;
20040;SDS011;10181;48.072;9.884;2023-05-23T14:06:45;18.63;;;16.75;;
20040;SDS011;10181;48.072;9.884;2023-05-23T14:09:11;18.42;;;16.55;;
20040;SDS011;10181;48.072;9.884;2023-05-23T14:11:37;20.23;;;16.23;;
20040;SDS011;10181;48.072;9.884;2023-05-23T14:14:03;18.23;;;16.33;;
20040;SDS011;10181;48.072;9.884;2023-05-23T14:16:29;17.77;;;15.97;;
20040;SDS011;10181;48.072;9.884;2023-05-23T14:18:56;16.90;;;14.27;;
20040;SDS011;10181;48.072;9.884;2023-05-23T14:21:22;15.77;;;14.27;;
20040;SDS011;10181;48.072;9.884;2023-05-23T14:23:48;16.60;;;14.80;;
20040;SDS011;10181;48.072;9.884;2023-05-23T14:26:13;16.83;;;15.10;;
20040;SDS011;10181;48.072;9.884;2023-05-23T14:28:39;14.95;;;13.55;;
20040;SDS011;10181;48.072;9.884;2023-05-23T14:31:05;17.52;;;15.68;;
20040;SDS011;10181;48.072;9.884;2023-05-23T14:33:31;17.33;;;15.63;;
20040;SDS011;10181;48.072;9.884;2023-05-23T14:35:56;15.82;;;14.43;;
20040;SDS011;10181;48.072;9.884;2023-05-23T14:38:22;16.65;;;14.95;;
20040;SDS011;10181;48.072;9.884;2023-05-23T14:40:48;16.90;;;15.30;;
20040;SDS011;10181;48.072;9.884;2023-05-23T14:43:14;15.68;;;14.27;;
20040;SDS011;10181;48.072;9.884;2023-05-23T14:45:39;16.27;;;14.68;;